Time;durP1;ratioP1;P1;durP2;ratioP2;P2;SDS_P1;SDS_P2;PMS_P1;PMS_P2;Temp;Humidity;BMP_temperature;BMP_pressure;BME280_temperature;BME280_humidity;BME280_pressure;Samples;Min_cycle;Max_cycle;Signal;HPM_P1;HPM_P2
2021/03/13 00:01:07;;;;;;;71.33;37.60;;;;;;;1.25;99.81;95645.31;5091828;28;20205;-61
2021/03/13 00:03:34;;;;;;;74.10;40.03;;;;;;;1.25;99.55;95644.53;5091100;28;20777;-62
2021/03/13 00:06:01;;;;;;;89.20;42.93;;;;;;;1.22;99.16;95640.66;5091145;28;20288;-63
2021/03/13 00:08:28;;;;;;;83.60;41.10;;;;;;;1.28;99.71;95639.75;5090993;28;20226;-63
2021/03/13 00:10:56;;;;;;;79.87;42.47;;;;;;;1.27;99.70;95632.28;5090804;28;20207;-62
2021/03/13 00:13:23;;;;;;;78.57;43.70;;;;;;;1.29;99.95;95636.19;5090851;28;20265;-61
2021/03/13 00:15:50;;;;;;;80.80;41.23;;;;;;;1.25;99.66;95631.72;5090543;28;20623;-62
2021/03/13 00:18:17;;;;;;;80.27;41.07;;;;;;;1.34;99.89;95632.91;5090558;28;20664;-63
2021/03/13 00:20:45;;;;;;;83.67;43.20;;;;;;;1.33;100.00;95631.38;5090771;28;20202;-61
2021/03/13 00:23:12;;;;;;;85.17;43.67;;;;;;;1.37;98.95;95637.56;5090581;28;20284;-62
2021/03/13 00:25:40;;;;;;;69.87;40.07;;;;;;;1.29;98.69;95636.19;5090738;28;20201;-62
2021/03/13 00:28:10;;;;;;;88.13;43.53;;;;;;;1.24;98.81;95637.88;5090513;28;20289;-62
2021/03/13 00:30:41;;;;;;;88.13;44.67;;;;;;;1.23;99.22;95626.06;5089566;28;20226;-61
2021/03/13 00:33:11;;;;;;;87.07;43.90;;;;;;;1.20;98.85;95626.53;5090733;28;20250;-62
2021/03/13 00:35:41;;;;;;;85.97;43.10;;;;;;;1.20;99.36;95627.31;5090633;28;20202;-63
2021/03/13 00:38:08;;;;;;;88.97;44.37;;;;;;;1.36;100.00;95622.44;5090222;28;20199;-63
2021/03/13 00:40:37;;;;;;;91.80;44.67;;;;;;;1.39;99.81;95619.44;5090223;28;20197;-63
2021/03/13 00:43:07;;;;;;;90.17;45.47;;;;;;;1.44;100.00;95617.72;5090134;28;20227;-63
2021/03/13 00:45:35;;;;;;;90.60;43.13;;;;;;;1.52;99.59;95619.88;5090020;28;20305;-62
2021/03/13 00:48:04;;;;;;;90.77;44.20;;;;;;;1.53;99.52;95624.00;5090159;28;20700;-64
2021/03/13 00:50:33;;;;;;;90.90;43.47;;;;;;;1.51;99.50;95620.88;5090181;28;20672;-64
2021/03/13 00:53:00;;;;;;;125.23;58.23;;;;;;;1.53;98.43;95630.91;5089839;28;20263;-64
2021/03/13 00:55:27;;;;;;;86.93;44.30;;;;;;;1.44;98.89;95620.28;5089984;28;20309;-64
2021/03/13 00:57:54;;;;;;;74.73;39.17;;;;;;;1.44;99.46;95617.72;5089961;28;20226;-63
2021/03/13 01:00:23;;;;;;;75.33;39.50;;;;;;;1.47;99.53;95613.91;5090096;28;20297;-63
2021/03/13 01:02:52;;;;;;;71.57;37.70;;;;;;;1.51;100.00;95607.31;5058036;28;902718;-63
2021/03/13 01:05:19;;;;;;;80.53;41.40;;;;;;;1.47;100.00;95601.09;5090899;28;20274;-63
2021/03/13 01:07:46;;;;;;;68.83;36.53;;;;;;;1.43;100.00;95605.94;5090805;28;20203;-63
2021/03/13 01:10:19;;;;;;;66.30;33.27;;;;;;;1.46;100.00;95605.44;5090499;28;20241;-62
2021/03/13 01:12:46;;;;;;;56.70;31.57;;;;;;;1.52;100.00;95598.63;5090773;28;20225;-63
2021/03/13 01:15:17;;;;;;;66.30;33.77;;;;;;;1.54;100.00;95596.63;5090441;28;20662;-63
2021/03/13 01:17:44;;;;;;;55.50;31.43;;;;;;;1.57;100.00;95596.91;5090410;28;20240;-62
2021/03/13 01:20:14;;;;;;;54.03;31.70;;;;;;;1.64;100.00;95592.41;5090435;28;20286;-63
2021/03/13 01:22:41;;;;;;;59.77;32.37;;;;;;;1.63;100.00;95597.78;5090409;28;20194;-63
2021/03/13 01:25:11;;;;;;;59.10;31.67;;;;;;;1.62;99.73;95598.78;5090325;28;20283;-64
2021/03/13 01:27:40;;;;;;;57.87;31.30;;;;;;;1.71;100.00;95593.03;5090586;28;20550;-64
2021/03/13 01:30:10;;;;;;;55.43;32.10;;;;;;;1.76;99.79;95594.09;5090305;28;20206;-63
2021/03/13 01:32:37;;;;;;;56.70;31.13;;;;;;;1.72;100.00;95594.56;5090236;28;20259;-63
2021/03/13 01:35:05;;;;;;;58.60;32.50;;;;;;;1.72;100.00;95591.25;5090323;28;20199;-61
2021/03/13 01:37:33;;;;;;;58.77;32.83;;;;;;;1.76;100.00;95586.41;5090150;28;20621;-64
2021/03/13 01:40:00;;;;;;;59.10;31.70;;;;;;;1.70;100.00;95588.13;5090047;28;20235;-63
2021/03/13 01:42:27;;;;;;;58.20;31.10;;;;;;;1.69;100.00;95579.66;5089845;28;20199;-65
2021/03/13 01:44:55;;;;;;;54.97;30.00;;;;;;;1.71;100.00;95582.78;5090396;28;20228;-63
2021/03/13 01:47:24;;;;;;;57.30;30.23;;;;;;;1.81;100.00;95571.91;5090244;28;20201;-62
2021/03/13 01:49:52;;;;;;;54.00;33.20;;;;;;;1.89;100.00;95568.16;5090075;28;20624;-63
2021/03/13 01:52:20;;;;;;;56.50;31.77;;;;;;;1.94;100.00;95566.44;5090461;28;20730;-63
2021/03/13 01:54:50;;;;;;;54.13;30.73;;;;;;;1.98;100.00;95536.00;5090090;28;20254;-62
2021/03/13 01:57:18;;;;;;;51.67;30.20;;;;;;;2.02;100.00;95531.94;5090297;28;20716;-63
2021/03/13 01:59:46;;;;;;;46.93;27.93;;;;;;;2.04;100.00;95532.50;5089914;28;20274;-62
2021/03/13 02:02:15;;;;;;;56.40;30.03;;;;;;;2.12;99.27;95550.00;5089869;28;20286;-62
2021/03/13 02:04:43;;;;;;;80.70;41.63;;;;;;;2.05;100.00;95541.69;5090445;28;20280;-63
2021/03/13 02:07:18;;;;;;;64.97;33.87;;;;;;;2.07;100.00;95544.81;5089780;28;20198;-63
2021/03/13 02:09:58;;;;;;;58.17;32.83;;;;;;;2.03;100.00;95551.44;5090288;28;20634;-63
2021/03/13 02:12:36;;;;;;;51.93;29.93;;;;;;;2.09;100.00;95540.97;5090004;28;20234;-63
2021/03/13 02:15:08;;;;;;;55.00;30.50;;;;;;;1.93;100.00;95538.50;5089856;28;20227;-64
2021/03/13 02:17:41;;;;;;;54.47;30.77;;;;;;;1.89;100.00;95538.19;5089957;28;20271;-63
2021/03/13 02:21:04;;;;;;;57.87;31.63;;;;;;;1.60;100.00;95547.00;5089908;28;20652;-63
2021/03/13 02:23:36;;;;;;;53.00;29.77;;;;;;;1.69;100.00;95541.25;5012573;28;20195;-63
2021/03/13 02:26:21;;;;;;;53.23;29.97;;;;;;;1.65;100.00;95550.41;5077304;28;20230;-64
2021/03/13 02:28:54;;;;;;;56.30;29.23;;;;;;;1.62;100.00;95548.34;5089736;28;20232;-64
2021/03/13 02:31:26;;;;;;;50.00;29.33;;;;;;;1.69;100.00;95535.38;5090061;28;20593;-64
2021/03/13 02:33:59;;;;;;;54.93;29.60;;;;;;;1.69;100.00;95535.38;5089459;28;20664;-64
2021/03/13 02:36:28;;;;;;;54.73;30.60;;;;;;;1.65;100.00;95529.94;5089708;28;20234;-63
2021/03/13 02:39:01;;;;;;;48.70;28.23;;;;;;;1.55;100.00;95542.59;5089561;28;20237;-64
2021/03/13 02:41:35;;;;;;;49.13;28.10;;;;;;;1.58;100.00;95544.69;5089575;28;20194;-64
2021/03/13 02:44:04;;;;;;;58.03;30.37;;;;;;;1.69;100.00;95543.81;5089547;28;20668;-65
2021/03/13 02:46:35;;;;;;;61.90;34.33;;;;;;;1.73;100.00;95557.72;5089639;28;20302;-65
2021/03/13 02:49:03;;;;;;;55.27;30.17;;;;;;;1.88;100.00;95556.38;5089504;28;20281;-65
2021/03/13 02:51:32;;;;;;;53.33;30.83;;;;;;;1.81;100.00;95551.41;5089824;28;20321;-64
2021/03/13 02:54:00;;;;;;;57.40;30.20;;;;;;;1.76;100.00;95553.91;5092778;28;20258;-64
2021/03/13 02:56:28;;;;;;;59.17;31.53;;;;;;;1.80;100.00;95546.50;5093180;28;20207;-65
2021/03/13 02:58:57;;;;;;;54.90;30.93;;;;;;;1.76;100.00;95548.00;5093572;28;20197;-64
2021/03/13 03:01:29;;;;;;;57.67;28.97;;;;;;;1.70;100.00;95544.59;5092804;28;20199;-65
2021/03/13 03:04:00;;;;;;;52.90;29.63;;;;;;;1.74;100.00;95546.44;5092984;28;20234;-63
2021/03/13 03:06:27;;;;;;;52.33;28.73;;;;;;;1.76;100.00;95545.44;5093293;28;20305;-64
2021/03/13 03:08:59;;;;;;;50.33;27.83;;;;;;;1.54;100.00;95541.06;5092843;28;20205;-63
2021/03/13 03:11:28;;;;;;;51.10;27.87;;;;;;;1.59;100.00;95538.56;5092985;28;20673;-63
2021/03/13 03:13:56;;;;;;;48.63;28.47;;;;;;;1.63;100.00;95533.75;5092856;28;20224;-63
2021/03/13 03:16:24;;;;;;;52.83;30.30;;;;;;;1.60;100.00;95534.97;5092693;28;20192;-64
2021/03/13 03:18:56;;;;;;;53.03;28.80;;;;;;;1.71;100.00;95536.69;5092760;28;20193;-64
2021/03/13 03:21:24;;;;;;;49.47;28.70;;;;;;;1.79;100.00;95525.25;5092669;28;20247;-64
2021/03/13 03:23:52;;;;;;;55.83;29.87;;;;;;;1.65;100.00;95524.81;5092690;28;20198;-65
2021/03/13 03:26:19;;;;;;;54.10;31.17;;;;;;;1.71;100.00;95518.75;5092832;28;20232;-64
2021/03/13 03:28:49;;;;;;;60.67;32.30;;;;;;;1.81;100.00;95514.75;5092467;28;20235;-64
2021/03/13 03:31:16;;;;;;;57.80;33.43;;;;;;;1.76;100.00;95507.00;5092652;28;20229;-65
2021/03/13 03:33:43;;;;;;;65.77;36.93;;;;;;;1.88;100.00;95508.47;5092440;28;20289;-63
2021/03/13 03:36:11;;;;;;;61.30;37.20;;;;;;;1.78;100.00;95516.03;5092269;28;20198;-64
2021/03/13 03:38:39;;;;;;;65.53;34.07;;;;;;;1.82;100.00;95511.19;5092390;28;20199;-64
2021/03/13 03:41:06;;;;;;;68.13;36.67;;;;;;;1.79;100.00;95516.81;5092241;28;20717;-65
2021/03/13 03:43:38;;;;;;;69.70;36.67;;;;;;;1.96;100.00;95523.41;5092250;28;20205;-65
2021/03/13 03:46:05;;;;;;;61.43;35.50;;;;;;;1.99;100.00;95520.34;5091896;28;20667;-65
2021/03/13 03:48:34;;;;;;;65.80;36.53;;;;;;;1.97;100.00;95524.97;5091948;28;20295;-62
2021/03/13 03:51:02;;;;;;;64.60;35.50;;;;;;;2.00;100.00;95528.81;5092042;28;20190;-65
2021/03/13 03:53:34;;;;;;;61.43;35.23;;;;;;;2.06;100.00;95533.78;5092088;28;20231;-64
2021/03/13 03:56:03;;;;;;;70.73;40.90;;;;;;;2.09;100.00;95545.34;5091996;28;20191;-64
2021/03/13 03:58:35;;;;;;;61.00;36.90;;;;;;;2.16;100.00;95544.16;5092019;28;20234;-63
2021/03/13 04:01:03;;;;;;;62.77;36.63;;;;;;;2.19;100.00;95549.81;5091879;28;20287;-64
2021/03/13 04:03:32;;;;;;;64.30;36.97;;;;;;;2.22;100.00;95550.13;5090926;28;20317;-64
2021/03/13 04:05:59;;;;;;;66.50;36.13;;;;;;;2.19;100.00;95545.47;5091363;28;20690;-63
2021/03/13 04:08:28;;;;;;;65.57;37.13;;;;;;;2.23;100.00;95546.53;5091875;28;20209;-63
2021/03/13 04:10:56;;;;;;;66.57;38.53;;;;;;;2.26;100.00;95546.06;5091639;28;20226;-63
2021/03/13 04:13:26;;;;;;;71.27;39.00;;;;;;;2.28;100.00;95551.72;5091381;28;20756;-64
2021/03/13 04:15:53;;;;;;;70.77;38.77;;;;;;;2.35;100.00;95538.72;5091571;28;20246;-64
2021/03/13 04:18:21;;;;;;;65.57;35.73;;;;;;;2.39;100.00;95534.69;5091495;28;20238;-65
2021/03/13 04:20:50;;;;;;;66.57;37.27;;;;;;;2.42;100.00;95532.41;5091595;28;20257;-65
2021/03/13 04:23:22;;;;;;;68.13;37.90;;;;;;;2.39;100.00;95543.13;5091526;28;20191;-64
2021/03/13 04:25:51;;;;;;;70.33;37.67;;;;;;;2.36;100.00;95542.81;5091521;28;20201;-63
2021/03/13 04:28:18;;;;;;;63.87;35.13;;;;;;;2.38;100.00;95548.50;5091462;28;20199;-63
2021/03/13 04:30:46;;;;;;;62.60;35.47;;;;;;;2.43;100.00;95551.13;5091362;28;20591;-63
2021/03/13 04:33:14;;;;;;;66.93;35.80;;;;;;;2.45;100.00;95561.91;5091559;28;20328;-63
2021/03/13 04:35:42;;;;;;;71.23;36.17;;;;;;;2.32;100.00;95557.94;5091094;28;20242;-64
2021/03/13 04:38:11;;;;;;;64.70;38.73;;;;;;;2.24;100.00;95560.91;5090972;28;20232;-64
2021/03/13 04:40:38;;;;;;;63.93;35.53;;;;;;;2.25;100.00;95551.41;5091211;28;20194;-64
2021/03/13 04:43:06;;;;;;;65.60;36.87;;;;;;;2.28;100.00;95546.59;5091211;28;20233;-64
2021/03/13 04:45:35;;;;;;;79.13;41.57;;;;;;;2.27;99.76;95560.44;5090870;28;20843;-62
2021/03/13 04:48:06;;;;;;;72.33;41.70;;;;;;;2.26;100.00;95558.88;5090930;28;20191;-65
2021/03/13 04:50:33;;;;;;;70.67;38.67;;;;;;;2.26;100.00;95548.63;5091015;28;20274;-64
2021/03/13 04:53:00;;;;;;;66.13;38.70;;;;;;;2.17;100.00;95547.50;5090690;28;20280;-63
2021/03/13 04:55:27;;;;;;;71.67;38.93;;;;;;;2.17;100.00;95540.59;5090853;28;20193;-63
2021/03/13 04:57:56;;;;;;;81.27;43.63;;;;;;;2.15;100.00;95540.03;5090830;28;20282;-63
2021/03/13 05:00:24;;;;;;;88.87;47.47;;;;;;;2.14;100.00;95542.84;5090957;28;20203;-62
2021/03/13 05:02:52;;;;;;;107.90;56.43;;;;;;;2.00;100.00;95546.75;5090421;28;20228;-62
2021/03/13 05:05:20;;;;;;;110.30;56.27;;;;;;;2.09;100.00;95550.47;5090380;28;20204;-61
2021/03/13 05:07:47;;;;;;;103.73;55.57;;;;;;;2.12;100.00;95555.91;5090481;28;20654;-62
2021/03/13 05:10:15;;;;;;;106.33;56.57;;;;;;;2.23;100.00;95553.47;5090448;28;20201;-63
2021/03/13 05:12:43;;;;;;;107.07;52.33;;;;;;;2.23;100.00;95536.28;5090565;28;20282;-62
2021/03/13 05:15:11;;;;;;;104.50;50.60;;;;;;;2.27;99.80;95549.41;5090224;28;20263;-63
2021/03/13 05:17:38;;;;;;;119.10;54.13;;;;;;;2.23;99.47;95554.25;5090274;28;20697;-63
2021/03/13 05:20:06;;;;;;;123.33;56.23;;;;;;;2.34;99.85;95550.75;5090379;28;20198;-63
2021/03/13 05:22:34;;;;;;;89.73;45.93;;;;;;;2.59;99.35;95548.47;5090453;28;20744;-64
2021/03/13 05:25:01;;;;;;;69.13;39.83;;;;;;;2.79;98.98;95547.88;5090435;28;20207;-65
2021/03/13 05:27:28;;;;;;;61.60;36.30;;;;;;;2.94;98.81;95550.59;5090224;28;20238;-64
2021/03/13 05:29:55;;;;;;;65.30;36.43;;;;;;;3.15;98.07;95546.41;5090167;28;20187;-64
2021/03/13 05:32:23;;;;;;;61.77;33.10;;;;;;;3.31;97.50;95549.88;5090381;28;20671;-63
2021/03/13 05:34:54;;;;;;;60.73;35.50;;;;;;;3.36;96.89;95558.38;5090071;28;20231;-64
2021/03/13 05:37:21;;;;;;;81.00;44.80;;;;;;;3.33;96.40;95556.31;5090335;28;20196;-64
2021/03/13 05:39:48;;;;;;;87.53;51.50;;;;;;;3.28;97.64;95563.97;5089765;28;20198;-63
2021/03/13 05:42:17;;;;;;;63.97;36.60;;;;;;;3.32;97.15;95562.47;5089961;28;20580;-64
2021/03/13 05:44:45;;;;;;;56.67;34.73;;;;;;;3.32;97.38;95564.25;5090109;28;20340;-63
2021/03/13 05:47:13;;;;;;;58.87;34.07;;;;;;;3.39;97.40;95559.66;5089703;28;20575;-63
2021/03/13 05:49:43;;;;;;;97.20;57.30;;;;;;;3.56;96.85;95573.16;5089809;28;20666;-63
2021/03/13 05:52:11;;;;;;;98.57;55.57;;;;;;;3.57;94.75;95573.94;5089831;28;20249;-63
2021/03/13 05:54:38;;;;;;;84.60;49.53;;;;;;;3.60;95.89;95578.56;5089356;28;20234;-63
2021/03/13 05:57:09;;;;;;;76.57;45.90;;;;;;;3.70;94.37;95568.38;5089632;28;20192;-63
2021/03/13 05:59:36;;;;;;;75.23;44.13;;;;;;;4.21;95.18;95565.03;5089630;28;20188;-64
2021/03/13 06:02:05;;;;;;;76.33;43.87;;;;;;;5.17;93.31;95570.44;5089502;28;20286;-62
2021/03/13 06:04:31;;;;;;;69.03;36.30;;;;;;;6.37;88.33;95585.25;5089143;28;20220;-65
2021/03/13 06:07:00;;;;;;;53.43;31.50;;;;;;;7.15;80.22;95583.53;5089107;28;20754;-63
2021/03/13 06:09:36;;;;;;;52.27;30.03;;;;;;;7.16;78.36;95599.81;5089690;28;20196;-63
2021/03/13 06:12:06;;;;;;;49.50;30.20;;;;;;;6.33;80.00;95604.84;5089503;28;20195;-62
2021/03/13 06:14:34;;;;;;;57.33;31.83;;;;;;;5.92;81.88;95599.81;5089340;28;20259;-63
2021/03/13 06:17:02;;;;;;;58.77;33.40;;;;;;;5.78;81.85;95603.91;5089441;28;20651;-62
2021/03/13 06:19:48;;;;;;;56.20;33.97;;;;;;;5.80;82.41;95601.06;5089543;28;20281;-64
2021/03/13 06:22:39;;;;;;;59.13;34.77;;;;;;;6.34;81.43;95609.75;5089396;28;20337;-64
2021/03/13 06:25:20;;;;;;;78.17;41.27;;;;;;;6.54;80.67;95613.28;5089446;28;20274;-64
2021/03/13 06:27:50;;;;;;;93.53;46.73;;;;;;;6.28;80.77;95618.53;5091134;28;20562;-64
2021/03/13 06:30:20;;;;;;;367.13;123.53;;;;;;;6.16;81.14;95625.03;5093339;28;20204;-63
2021/03/13 06:32:50;;;;;;;118.00;51.00;;;;;;;6.14;80.92;95642.56;5093256;28;20596;-63
2021/03/13 06:35:24;;;;;;;113.07;48.30;;;;;;;5.76;83.45;95636.91;5092875;28;20270;-64
2021/03/13 06:37:52;;;;;;;120.73;49.50;;;;;;;5.51;85.49;95634.34;5093327;28;20278;-63
2021/03/13 06:40:27;;;;;;;54.50;32.93;;;;;;;5.36;86.31;95621.44;5093165;28;20203;-63
2021/03/13 06:42:54;;;;;;;97.67;42.60;;;;;;;5.41;86.61;95617.06;5092773;28;20195;-63
2021/03/13 06:45:22;;;;;;;122.90;50.27;;;;;;;5.52;86.49;95617.84;5092773;28;20302;-64
2021/03/13 06:47:50;;;;;;;90.13;43.67;;;;;;;5.74;85.97;95622.72;5092799;28;20195;-62
2021/03/13 06:50:18;;;;;;;65.50;36.90;;;;;;;5.88;85.60;95616.03;5092826;28;20287;-63
2021/03/13 06:52:48;;;;;;;61.03;38.13;;;;;;;6.12;85.71;95611.13;5092711;28;20195;-63
2021/03/13 06:55:18;;;;;;;62.77;36.13;;;;;;;6.23;83.50;95604.88;5092499;28;20233;-62
2021/03/13 06:57:47;;;;;;;61.40;38.00;;;;;;;6.25;84.45;95607.97;5092381;28;20237;-64
2021/03/13 07:00:28;;;;;;;65.93;40.17;;;;;;;6.48;85.20;95623.63;5092432;28;20191;-63
2021/03/13 07:03:08;;;;;;;73.93;44.20;;;;;;;6.86;84.64;95632.53;5092271;28;20707;-63
2021/03/13 07:05:35;;;;;;;53.80;35.20;;;;;;;6.90;85.15;95623.22;5092308;28;20579;-62
2021/03/13 07:08:27;;;;;;;68.27;40.37;;;;;;;7.10;83.54;95624.91;5092783;28;20238;-62
2021/03/13 07:11:15;;;;;;;72.33;41.63;;;;;;;7.22;85.10;95629.75;5092293;28;20667;-63
2021/03/13 07:13:43;;;;;;;64.60;38.80;;;;;;;7.12;83.53;95630.59;5092430;28;20690;-63
2021/03/13 07:16:32;;;;;;;63.00;38.80;;;;;;;7.19;80.98;95632.88;5092582;28;20196;-63
2021/03/13 07:19:01;;;;;;;65.43;44.73;;;;;;;6.99;82.42;95627.81;5092035;28;20200;-62
2021/03/13 07:21:30;;;;;;;65.37;41.07;;;;;;;6.98;82.88;95627.03;5092127;28;20663;-63
2021/03/13 07:24:01;;;;;;;66.63;39.47;;;;;;;7.06;83.25;95628.31;5092202;28;20191;-63
2021/03/13 07:26:32;;;;;;;63.37;37.70;;;;;;;7.13;83.51;95631.34;5092168;28;20206;-64
2021/03/13 07:29:01;;;;;;;63.97;38.40;;;;;;;7.14;83.64;95635.47;5091927;28;20235;-62
2021/03/13 07:31:33;;;;;;;58.53;37.67;;;;;;;7.27;82.39;95640.06;5092374;28;20223;-61
2021/03/13 07:34:04;;;;;;;61.40;37.30;;;;;;;7.10;82.78;95639.63;5091721;28;20691;-64
2021/03/13 07:36:36;;;;;;;62.67;38.00;;;;;;;7.22;83.35;95637.50;5091835;28;20320;-64
2021/03/13 07:39:08;;;;;;;64.67;37.60;;;;;;;7.19;83.11;95636.22;5091722;28;20245;-63
2021/03/13 07:41:38;;;;;;;73.07;38.30;;;;;;;7.32;83.46;95640.78;5091755;28;20203;-62
2021/03/13 07:44:06;;;;;;;61.20;38.13;;;;;;;7.53;83.33;95636.25;5091494;28;20246;-61
2021/03/13 07:46:36;;;;;;;63.37;39.77;;;;;;;7.80;81.60;95640.97;5091377;28;20643;-63
2021/03/13 07:49:03;;;;;;;68.53;41.50;;;;;;;7.76;80.86;95643.31;5091755;28;20203;-63
2021/03/13 07:51:30;;;;;;;63.23;39.77;;;;;;;7.62;81.46;95636.47;5091742;28;20231;-63
2021/03/13 07:53:58;;;;;;;65.07;39.53;;;;;;;7.78;80.03;95641.22;5091527;28;20232;-64
2021/03/13 07:56:26;;;;;;;54.07;35.33;;;;;;;7.73;80.19;95635.31;5091313;28;20600;-63
2021/03/13 07:58:56;;;;;;;57.43;34.93;;;;;;;7.86;80.94;95642.47;5091382;28;20192;-62
2021/03/13 08:01:49;;;;;;;46.33;28.17;;;;;;;7.89;75.82;95654.06;5091830;28;20276;-62
2021/03/13 08:04:56;;;;;;;42.07;28.60;;;;;;;7.92;76.16;95656.13;5091472;28;20281;-62
2021/03/13 08:07:23;;;;;;;51.10;28.53;;;;;;;8.12;76.06;95651.53;5048754;28;20283;-62
2021/03/13 08:09:50;;;;;;;43.13;27.53;;;;;;;8.28;75.32;95654.75;5049051;28;20625;-62
2021/03/13 08:12:39;;;;;;;39.17;26.10;;;;;;;8.68;72.38;95656.16;5070043;28;20678;-63
2021/03/13 08:15:13;;;;;;;38.20;26.17;;;;;;;9.03;69.91;95655.75;5091172;28;20246;-62
2021/03/13 08:17:42;;;;;;;44.23;28.10;;;;;;;9.00;71.57;95652.94;5091009;28;20724;-62
2021/03/13 08:20:10;;;;;;;39.03;26.37;;;;;;;9.33;70.13;95651.19;5090001;28;20202;-61
2021/03/13 08:22:37;;;;;;;53.73;27.50;;;;;;;9.57;68.40;95648.50;5090996;28;20192;-61
2021/03/13 08:25:26;;;;;;;51.80;26.77;;;;;;;9.67;69.32;95651.72;5090884;28;20627;-61
2021/03/13 08:27:54;;;;;;;39.63;24.30;;;;;;;9.57;69.98;95646.69;5090928;28;20224;-61
2021/03/13 08:30:24;;;;;;;34.87;23.57;;;;;;;9.89;67.96;95656.31;5091294;28;20223;-66
2021/03/13 08:33:05;;;;;;;39.50;22.80;;;;;;;9.97;67.54;95652.28;5091022;28;20207;-64
2021/03/13 08:35:38;;;;;;;37.97;22.83;;;;;;;10.23;68.56;95662.00;5090778;28;20553;-66
2021/03/13 08:38:05;;;;;;;37.17;24.60;;;;;;;10.50;67.42;95655.31;5090692;28;20192;-64
2021/03/13 08:40:32;;;;;;;42.37;27.80;;;;;;;10.26;68.93;95658.84;5090675;28;20278;-65
2021/03/13 08:43:00;;;;;;;41.33;28.77;;;;;;;10.40;72.28;95653.69;5090720;28;20200;-65
2021/03/13 08:45:34;;;;;;;44.13;26.03;;;;;;;10.43;70.47;95660.88;5090680;28;20250;-65
2021/03/13 08:48:02;;;;;;;37.97;22.70;;;;;;;10.55;70.66;95657.81;5090590;28;20585;-65
2021/03/13 08:50:56;;;;;;;34.37;22.93;;;;;;;10.63;69.70;95650.13;5090174;28;20202;-65
2021/03/13 08:53:31;;;;;;;32.23;21.13;;;;;;;10.66;69.74;95662.53;5090640;28;20196;-65
2021/03/13 08:55:58;;;;;;;31.03;21.67;;;;;;;10.88;67.28;95648.06;5090696;28;20323;-66
2021/03/13 08:58:42;;;;;;;38.80;22.60;;;;;;;10.64;67.39;95656.09;5090350;28;20689;-65
2021/03/13 09:01:20;;;;;;;35.23;24.00;;;;;;;10.61;69.54;95660.00;5090650;28;20195;-65
2021/03/13 09:03:53;;;;;;;40.20;26.33;;;;;;;10.60;71.59;95653.31;5090190;28;20227;-65
2021/03/13 09:06:23;;;;;;;40.77;26.63;;;;;;;10.52;71.31;95658.38;5090430;28;20199;-65
2021/03/13 09:08:50;;;;;;;41.73;27.17;;;;;;;10.13;73.33;95653.59;5090812;28;20199;-68
2021/03/13 09:11:26;;;;;;;41.00;27.27;;;;;;;10.16;73.55;95663.44;5090696;28;20199;-64
2021/03/13 09:13:59;;;;;;;53.53;31.97;;;;;;;9.94;75.90;95661.44;5090877;28;20720;-66
2021/03/13 09:16:26;;;;;;;43.03;30.23;;;;;;;10.08;76.16;95667.44;5090641;28;20282;-64
2021/03/13 09:18:55;;;;;;;47.07;29.73;;;;;;;10.02;75.07;95665.19;5090223;28;20192;-65
2021/03/13 09:21:46;;;;;;;39.10;28.10;;;;;;;10.05;75.42;95673.22;5089972;28;20647;-66
2021/03/13 09:24:16;;;;;;;46.37;31.57;;;;;;;10.07;78.42;95670.31;5090352;28;20204;-65
2021/03/13 09:26:42;;;;;;;46.30;29.67;;;;;;;10.08;77.78;95675.22;5089955;28;20318;-65
2021/03/13 09:29:09;;;;;;;48.90;29.57;;;;;;;10.06;77.37;95684.38;5089984;28;20274;-66
2021/03/13 09:31:37;;;;;;;46.73;30.07;;;;;;;10.07;79.34;95675.50;5090262;28;20207;-65
2021/03/13 09:34:20;;;;;;;46.23;31.37;;;;;;;10.19;80.45;95675.84;5089800;28;20313;-66
2021/03/13 09:36:47;;;;;;;43.90;30.70;;;;;;;10.30;79.87;95665.03;5089857;28;20199;-64
2021/03/13 09:39:22;;;;;;;51.80;32.27;;;;;;;10.33;81.32;95671.44;5089880;28;20279;-66
2021/03/13 09:42:08;;;;;;;42.27;26.10;;;;;;;10.32;81.55;95659.50;5090129;28;20206;-65
2021/03/13 09:44:37;;;;;;;52.77;30.77;;;;;;;10.33;82.39;95661.84;5089878;28;20677;-64
2021/03/13 09:47:28;;;;;;;60.00;30.90;;;;;;;10.03;83.15;95657.13;5089754;28;20278;-64
2021/03/13 09:49:58;;;;;;;43.53;26.20;;;;;;;10.13;83.21;95645.81;5087728;28;20253;-65
2021/03/13 09:52:28;;;;;;;41.27;23.83;;;;;;;10.30;81.84;95646.06;5089792;28;20302;-64
2021/03/13 09:55:05;;;;;;;42.63;23.93;;;;;;;10.42;82.76;95643.75;5089641;28;20230;-65
2021/03/13 09:57:32;;;;;;;36.70;23.17;;;;;;;10.55;80.28;95652.63;5089648;28;20632;-64
2021/03/13 10:00:00;;;;;;;34.50;22.73;;;;;;;10.70;82.07;95644.53;5089920;28;20199;-65
2021/03/13 10:02:28;;;;;;;27.97;18.20;;;;;;;10.74;77.79;95658.50;5090582;28;20195;-66
2021/03/13 10:04:56;;;;;;;32.07;19.47;;;;;;;10.67;77.01;95655.50;5093714;28;20866;-65
2021/03/13 10:07:24;;;;;;;28.87;19.23;;;;;;;10.45;76.67;95658.00;5094353;28;20200;-66
2021/03/13 10:09:53;;;;;;;30.70;19.70;;;;;;;10.58;77.59;95658.00;5093714;28;20736;-65
2021/03/13 10:12:43;;;;;;;28.83;19.87;;;;;;;10.39;78.04;95653.94;5093823;28;20202;-66
2021/03/13 10:15:22;;;;;;;29.33;18.97;;;;;;;10.21;77.37;95660.78;5091058;28;20650;-66
2021/03/13 10:17:50;;;;;;;26.73;19.17;;;;;;;9.96;77.26;95661.94;5094094;28;20210;-65
2021/03/13 10:20:18;;;;;;;29.30;19.27;;;;;;;9.96;78.02;95667.13;5093533;28;20854;-66
2021/03/13 10:22:46;;;;;;;28.83;19.30;;;;;;;10.04;78.24;95661.28;5093765;28;20199;-64
2021/03/13 10:25:13;;;;;;;31.07;19.93;;;;;;;10.11;78.97;95668.69;5093715;28;20271;-65
2021/03/13 10:27:40;;;;;;;28.97;19.03;;;;;;;10.08;79.04;95667.44;5093506;28;20241;-65
2021/03/13 10:30:09;;;;;;;30.17;17.73;;;;;;;10.27;77.42;95678.56;5093315;28;20251;-65
2021/03/13 10:32:38;;;;;;;24.30;16.70;;;;;;;10.19;77.87;95668.06;5093754;28;20191;-66
2021/03/13 10:35:10;;;;;;;26.47;17.33;;;;;;;10.20;79.16;95660.00;5093257;28;20255;-65
2021/03/13 10:37:40;;;;;;;16.53;11.83;;;;;;;10.48;74.38;95663.38;5093184;28;20195;-64
2021/03/13 10:40:10;;;;;;;17.60;12.27;;;;;;;10.51;75.80;95655.00;5093529;28;20277;-65
2021/03/13 10:42:37;;;;;;;17.73;13.10;;;;;;;10.45;74.85;95656.19;5093226;28;20199;-66
2021/03/13 10:45:16;;;;;;;19.83;13.53;;;;;;;10.55;74.71;95657.81;5092823;28;20593;-66
2021/03/13 10:47:43;;;;;;;22.87;14.67;;;;;;;10.66;74.45;95648.78;5093010;28;20265;-65
2021/03/13 10:50:12;;;;;;;27.70;17.20;;;;;;;10.65;73.88;95649.84;5093144;28;20196;-65
2021/03/13 10:52:40;;;;;;;25.63;17.43;;;;;;;10.84;74.71;95644.53;5093329;28;20566;-65
2021/03/13 10:55:12;;;;;;;27.30;17.40;;;;;;;10.98;75.18;95648.66;5093023;28;20843;-66
2021/03/13 10:58:02;;;;;;;23.90;16.40;;;;;;;10.96;73.41;95642.22;5092801;28;20229;-65
2021/03/13 11:00:29;;;;;;;21.47;14.03;;;;;;;11.10;72.71;95632.53;5092942;28;20192;-65
2021/03/13 11:02:56;;;;;;;16.97;11.20;;;;;;;11.20;69.81;95638.31;5092747;28;20231;-65
2021/03/13 11:05:23;;;;;;;16.80;12.30;;;;;;;11.55;73.18;95634.16;5092756;28;20551;-65
2021/03/13 11:07:50;;;;;;;20.87;12.47;;;;;;;11.48;72.08;95633.00;5092879;28;20230;-65
2021/03/13 11:10:18;;;;;;;18.27;11.67;;;;;;;11.66;73.32;95625.03;5092680;28;20650;-65
2021/03/13 11:12:45;;;;;;;14.60;10.00;;;;;;;11.90;69.48;95629.97;5092401;28;20213;-65
2021/03/13 11:15:13;;;;;;;14.87;10.80;;;;;;;11.68;70.95;95631.78;5092572;28;20623;-63
2021/03/13 11:17:39;;;;;;;18.27;9.53;;;;;;;11.50;70.03;95629.06;5092446;28;20601;-63
2021/03/13 11:20:08;;;;;;;13.20;8.40;;;;;;;11.65;68.15;95623.50;5092530;28;20271;-64
2021/03/13 11:22:35;;;;;;;16.00;10.27;;;;;;;11.69;70.13;95617.69;5092360;28;20200;-64
2021/03/13 11:25:02;;;;;;;19.17;10.23;;;;;;;11.80;68.62;95614.59;5092385;28;20291;-63
2021/03/13 11:27:31;;;;;;;12.87;8.83;;;;;;;11.85;67.47;95616.31;5092865;28;20210;-64
2021/03/13 11:29:58;;;;;;;13.23;6.70;;;;;;;12.08;66.41;95620.41;5092549;28;20599;-64
2021/03/13 11:32:25;;;;;;;9.90;6.77;;;;;;;11.72;66.22;95622.28;5092386;28;20195;-64
2021/03/13 11:34:52;;;;;;;9.80;6.10;;;;;;;11.49;66.56;95619.72;5092339;28;20243;-64